Time;durP1;ratioP1;P1;durP2;ratioP2;P2;SDS_P1;SDS_P2;PMS_P1;PMS_P2;Temp;Humidity;BMP_temperature;BMP_pressure;BME280_temperature;BME280_humidity;BME280_pressure;Samples;Min_cycle;Max_cycle;Signal;HPM_P1;HPM_P2
2021/10/01 00:00:15;;;;;;;;;3.00;2.00;;;;;14.87;50.81;101750.53;5079274;27;45338;-58
2021/10/01 00:02:41;;;;;;;;;3.00;3.00;;;;;14.86;50.88;101745.34;5079366;28;46307;-58
2021/10/01 00:05:07;;;;;;;;;4.50;2.25;;;;;14.84;51.11;101740.16;5079566;27;45603;-58
2021/10/01 00:07:32;;;;;;;;;2.50;2.50;;;;;14.83;51.15;101740.22;5093983;27;45398;-58
2021/10/01 00:09:58;;;;;;;;;2.00;2.00;;;;;14.83;51.00;101737.59;5079697;27;45399;-59
2021/10/01 00:12:24;;;;;;;;;3.75;2.25;;;;;14.81;51.42;101742.84;5079197;27;46123;-59
2021/10/01 00:14:49;;;;;;;;;3.00;3.00;;;;;14.79;51.17;101734.19;5079038;27;45397;-58
2021/10/01 00:17:16;;;;;;;;;2.75;2.75;;;;;14.78;51.42;101724.63;5077753;27;45195;-59
2021/10/01 00:19:41;;;;;;;;;5.00;3.00;;;;;14.78;51.61;101727.25;5079424;28;45306;-59
2021/10/01 00:22:07;;;;;;;;;1.75;1.50;;;;;14.74;51.24;101717.78;5079074;27;46060;-59
2021/10/01 00:24:34;;;;;;;;;2.25;1.25;;;;;14.74;51.41;101725.63;5079379;27;45270;-59
2021/10/01 00:27:00;;;;;;;;;1.75;1.75;;;;;14.71;51.68;101710.00;5079351;27;45306;-59
2021/10/01 00:29:25;;;;;;;;;4.00;2.50;;;;;14.69;51.61;101717.06;5078829;27;45528;-59
2021/10/01 00:31:51;;;;;;;;;2.00;2.00;;;;;14.70;51.69;101716.16;5078841;27;45446;-59
2021/10/01 00:34:17;;;;;;;;;1.00;1.00;;;;;14.68;51.41;101710.09;5077856;27;45240;-58
2021/10/01 00:36:43;;;;;;;;;3.75;3.00;;;;;14.67;51.92;101716.25;5077887;27;45302;-59
2021/10/01 00:39:08;;;;;;;;;1.25;1.00;;;;;14.65;51.96;101718.06;5078991;27;45281;-58
2021/10/01 00:41:35;;;;;;;;;2.00;2.00;;;;;14.66;51.73;101711.06;5078862;27;45401;-58
2021/10/01 00:44:00;;;;;;;;;1.50;1.50;;;;;14.63;52.09;101713.78;5076903;28;45442;-58
2021/10/01 00:46:26;;;;;;;;;3.25;2.00;;;;;14.62;52.10;101718.16;5078993;27;45490;-59
2021/10/01 00:48:51;;;;;;;;;1.50;1.00;;;;;14.61;52.19;101719.00;5078933;28;45559;-58
2021/10/01 00:51:17;;;;;;;;;3.00;1.00;;;;;14.58;51.91;101717.34;5077566;28;47075;-58
2021/10/01 00:53:44;;;;;;;;;1.00;1.00;;;;;14.57;52.36;101715.63;5080278;28;45601;-59
2021/10/01 00:56:10;;;;;;;;;2.00;2.00;;;;;14.57;52.19;101717.41;5075962;27;45521;-58
2021/10/01 00:58:35;;;;;;;;;1.50;1.25;;;;;14.55;52.27;101708.72;5071431;28;45516;-58
2021/10/01 01:01:12;;;;;;;;;2.50;2.00;;;;;14.52;52.45;101699.22;5067989;28;45282;-59
2021/10/01 01:03:56;;;;;;;;;1.00;1.00;;;;;14.50;52.48;101703.63;5073017;27;45207;-59
2021/10/01 01:06:37;;;;;;;;;2.25;1.00;;;;;14.49;52.73;101699.31;5075359;28;45205;-59
2021/10/01 01:09:09;;;;;;;;;2.00;2.00;;;;;14.49;52.91;101698.47;5067661;28;45517;-58
2021/10/01 01:11:50;;;;;;;;;5.25;2.00;;;;;14.46;52.88;101691.56;5074907;27;46921;-57
2021/10/01 01:14:24;;;;;;;;;2.75;1.75;;;;;14.45;53.06;101686.38;5068179;27;45270;-57
2021/10/01 01:16:52;;;;;;;;;1.00;1.00;;;;;14.41;53.38;101682.94;5077876;28;45324;-57
2021/10/01 01:19:38;;;;;;;;;3.00;3.00;;;;;14.40;53.71;101693.44;5072101;27;45480;-57
2021/10/01 01:22:18;;;;;;;;;1.25;1.25;;;;;14.38;53.41;101684.78;5075070;28;47103;-57
2021/10/01 01:25:16;;;;;;;;;1.50;0.75;;;;;14.36;53.42;101681.34;5075027;28;45262;-57
2021/10/01 01:28:06;;;;;;;;;1.75;1.75;;;;;14.35;53.58;101679.63;5061886;28;45192;-57
2021/10/01 01:30:38;;;;;;;;;1.00;1.00;;;;;14.32;53.72;101676.22;5070778;28;45280;-57
2021/10/01 01:33:06;;;;;;;;;3.75;2.00;;;;;14.30;53.82;101670.16;5074915;28;45635;-57
2021/10/01 01:35:34;;;;;;;;;2.75;1.50;;;;;14.29;53.98;101670.22;5067513;28;45338;-57
2021/10/01 01:38:17;;;;;;;;;2.00;2.00;;;;;14.26;54.11;101665.06;5074941;28;45330;-57
2021/10/01 01:40:51;;;;;;;;;2.00;0.00;;;;;14.21;54.22;101665.19;5075069;28;45394;-57
2021/10/01 01:43:17;;;;;;;;;2.00;2.00;;;;;14.20;54.38;101670.44;5070959;28;45375;-57
2021/10/01 01:45:44;;;;;;;;;4.25;3.00;;;;;14.18;54.75;101662.66;5075163;28;45294;-57
2021/10/01 01:48:10;;;;;;;;;3.25;1.75;;;;;14.17;54.61;101655.72;5081949;27;45288;-57
2021/10/01 01:50:36;;;;;;;;;5.00;3.00;;;;;14.17;54.68;101647.88;5081329;27;45436;-57
2021/10/01 01:53:03;;;;;;;;;1.25;1.25;;;;;14.15;54.72;101647.06;5081334;27;46214;-58
2021/10/01 01:55:30;;;;;;;;;3.50;2.25;;;;;14.12;55.08;101649.75;5080822;27;45242;-58
2021/10/01 01:57:58;;;;;;;;;4.50;1.25;;;;;14.07;55.08;101646.44;5080537;27;45402;-58
2021/10/01 02:00:24;;;;;;;;;2.00;1.00;;;;;14.01;55.36;101633.50;5080880;27;45440;-59
2021/10/01 02:02:53;;;;;;;;;2.00;2.00;;;;;13.98;55.79;101636.22;5081396;28;45329;-58
2021/10/01 02:05:20;;;;;;;;;2.00;1.00;;;;;13.96;55.54;101635.38;5079868;27;45328;-58
2021/10/01 02:07:47;;;;;;;;;2.75;2.00;;;;;13.94;55.86;101626.75;5081441;27;45310;-59
2021/10/01 02:10:18;;;;;;;;;3.75;2.50;;;;;13.93;55.82;101627.66;5079794;28;45285;-58
2021/10/01 02:12:50;;;;;;;;;2.75;2.00;;;;;13.93;56.01;101625.88;5081007;28;47137;-58
2021/10/01 02:15:16;;;;;;;;;2.00;2.00;;;;;13.94;56.01;101621.50;5077940;27;46046;-59
2021/10/01 02:17:44;;;;;;;;;2.00;2.00;;;;;13.93;56.18;101610.22;5068959;27;45401;-59
2021/10/01 02:20:11;;;;;;;;;2.75;1.25;;;;;13.93;56.46;101604.97;5077072;28;45472;-59
2021/10/01 02:22:37;;;;;;;;;3.75;2.00;;;;;13.91;56.44;101613.75;5078651;27;45529;-59
2021/10/01 02:25:05;;;;;;;;;2.50;2.50;;;;;13.90;56.75;101609.44;5078292;27;45416;-59
2021/10/01 02:27:45;;;;;;;;;1.75;1.75;;;;;13.88;56.68;101600.78;5078746;27;45292;-58
2021/10/01 02:30:15;;;;;;;;;2.75;2.00;;;;;13.85;56.55;101596.50;5060444;27;45854;-59
2021/10/01 02:33:03;;;;;;;;;2.00;2.00;;;;;13.85;57.07;101593.91;5078640;27;45961;-58
2021/10/01 02:35:28;;;;;;;;;2.00;2.00;;;;;13.83;57.15;101582.63;5078139;27;45342;-59
2021/10/01 02:37:54;;;;;;;;;4.50;2.00;;;;;13.79;57.48;101580.97;5078100;27;45458;-59
2021/10/01 02:40:20;;;;;;;;;3.75;2.00;;;;;13.75;57.62;101579.34;5078362;27;45560;-59
2021/10/01 02:42:46;;;;;;;;;1.00;1.00;;;;;13.69;57.99;101569.06;5081021;27;45959;-59
2021/10/01 02:45:12;;;;;;;;;2.75;1.00;;;;;13.65;57.88;101562.22;5077172;27;45587;-59
2021/10/01 02:47:38;;;;;;;;;3.50;2.00;;;;;13.60;57.88;101567.56;5078394;27;45445;-59
2021/10/01 02:50:14;;;;;;;;;1.25;1.25;;;;;13.57;58.58;101567.63;5079095;28;45248;-59
2021/10/01 02:53:01;;;;;;;;;1.00;1.00;;;;;13.56;58.75;101573.75;5080420;27;46354;-59
2021/10/01 02:55:53;;;;;;;;;2.00;2.00;;;;;13.54;58.67;101572.94;5078816;28;45765;-61
2021/10/01 02:58:26;;;;;;;;;1.75;1.75;;;;;13.54;58.84;101565.13;5082462;27;45298;-58
2021/10/01 03:00:53;;;;;;;;;2.00;2.00;;;;;13.54;59.01;101565.13;5079930;27;45450;-58
2021/10/01 03:03:25;;;;;;;;;2.00;2.00;;;;;13.54;58.94;101562.50;5080005;27;46198;-58
2021/10/01 03:05:54;;;;;;;;;2.00;2.00;;;;;13.53;58.81;101558.19;5080432;28;45562;-58
2021/10/01 03:08:22;;;;;;;;;3.50;3.00;;;;;13.51;59.20;101549.53;5080371;27;45340;-58
2021/10/01 03:10:50;;;;;;;;;2.00;2.00;;;;;13.50;59.32;101547.81;5080585;27;45504;-59
2021/10/01 03:13:18;;;;;;;;;3.50;1.50;;;;;13.50;59.37;101550.44;5079714;27;45981;-58
2021/10/01 03:15:44;;;;;;;;;5.00;1.00;;;;;13.49;59.65;101546.09;5079613;27;45303;-59
2021/10/01 03:18:10;;;;;;;;;1.50;1.00;;;;;13.48;59.69;101543.53;5068493;28;45296;-58
2021/10/01 03:20:37;;;;;;;;;1.00;1.00;;;;;13.44;60.38;101540.16;5080370;27;45452;-58
2021/10/01 03:23:02;;;;;;;;;5.50;3.75;;;;;13.44;59.54;101537.53;5079874;27;46383;-58
2021/10/01 03:25:28;;;;;;;;;2.50;2.00;;;;;13.44;60.85;101534.09;5080169;27;45329;-58
2021/10/01 03:27:54;;;;;;;;;2.00;1.75;;;;;13.42;60.94;101534.13;5079806;27;45232;-58
2021/10/01 03:30:20;;;;;;;;;5.00;2.00;;;;;13.42;60.56;101534.13;5079762;27;45440;-57
2021/10/01 03:32:46;;;;;;;;;3.75;1.75;;;;;13.43;61.05;101535.84;5079726;27;47383;-58
2021/10/01 03:35:13;;;;;;;;;3.00;1.25;;;;;13.46;60.88;101535.75;5080034;27;45450;-57
2021/10/01 03:37:38;;;;;;;;;2.00;1.00;;;;;13.47;61.22;101542.69;5079657;27;45450;-57
2021/10/01 03:40:09;;;;;;;;;2.00;2.00;;;;;13.47;61.42;101531.38;5079965;28;45365;-57
2021/10/01 03:42:35;;;;;;;;;2.00;2.00;;;;;13.44;61.52;101521.88;5079394;27;45412;-58
2021/10/01 03:45:00;;;;;;;;;3.00;2.00;;;;;13.42;61.58;101515.84;5078815;27;45401;-59
2021/10/01 03:47:26;;;;;;;;;2.00;2.00;;;;;13.42;61.73;101521.06;5078833;28;45326;-58
2021/10/01 03:49:51;;;;;;;;;2.75;2.00;;;;;13.42;61.79;101520.22;5079466;27;45231;-58
2021/10/01 03:52:17;;;;;;;;;5.00;2.00;;;;;13.44;61.81;101518.41;5079271;27;46037;-58
2021/10/01 03:54:46;;;;;;;;;3.00;3.00;;;;;13.42;62.04;101512.38;5079349;27;45382;-58
2021/10/01 03:57:12;;;;;;;;;1.50;1.50;;;;;13.39;61.83;101513.28;5079500;27;45445;-58
2021/10/01 03:59:38;;;;;;;;;3.50;3.25;;;;;13.38;62.28;101498.53;5079209;28;45511;-58
2021/10/01 04:02:04;;;;;;;;;3.25;0.25;;;;;13.36;62.48;101498.56;5079180;27;46191;-58
2021/10/01 04:04:30;;;;;;;;;5.00;3.00;;;;;13.34;62.75;101494.28;5079051;27;45380;-58
2021/10/01 04:06:55;;;;;;;;;2.00;1.00;;;;;13.31;62.84;101495.22;5079365;27;45447;-58
2021/10/01 04:09:21;;;;;;;;;1.75;1.75;;;;;13.30;63.42;101490.91;5079034;27;45413;-59
2021/10/01 04:11:47;;;;;;;;;3.75;1.00;;;;;13.29;62.87;101490.94;5094672;27;45368;-59
2021/10/01 04:14:12;;;;;;;;;4.25;2.00;;;;;13.28;63.14;101490.09;5078891;27;45410;-59
2021/10/01 04:16:38;;;;;;;;;3.25;2.00;;;;;13.27;63.48;101487.53;5078028;27;45304;-59
2021/10/01 04:19:03;;;;;;;;;4.00;2.25;;;;;13.23;63.64;101484.16;5068987;27;45395;-58
2021/10/01 04:21:28;;;;;;;;;2.00;2.00;;;;;13.21;63.76;101488.53;5079055;27;45388;-58
2021/10/01 04:23:54;;;;;;;;;3.75;3.00;;;;;13.21;63.39;101487.66;5079019;27;45325;-60
2021/10/01 04:26:19;;;;;;;;;1.25;1.25;;;;;13.20;64.03;101481.59;5079038;27;45240;-61
2021/10/01 04:28:45;;;;;;;;;1.25;1.00;;;;;13.20;64.70;101480.75;5081115;27;45362;-60
2021/10/01 04:31:11;;;;;;;;;2.75;0.75;;;;;13.17;64.52;101480.78;5082069;28;45284;-59
2021/10/01 04:33:40;;;;;;;;;3.00;3.00;;;;;13.18;64.49;101486.00;5082358;27;45248;-60
2021/10/01 04:36:06;;;;;;;;;3.00;3.00;;;;;13.19;64.43;101484.25;5082471;27;45492;-60
2021/10/01 04:38:32;;;;;;;;;3.75;2.00;;;;;13.18;64.64;101485.16;5082440;27;45280;-61
2021/10/01 04:40:58;;;;;;;;;3.50;2.50;;;;;13.16;64.82;101479.06;5081902;27;47111;-60
2021/10/01 04:43:23;;;;;;;;;5.75;5.75;;;;;13.17;65.02;101480.78;5081978;27;45296;-60
2021/10/01 04:45:48;;;;;;;;;3.00;2.00;;;;;13.17;64.73;101479.03;5080483;27;45326;-59
2021/10/01 04:48:14;;;;;;;;;1.50;1.50;;;;;13.18;64.65;101482.53;5082281;27;45646;-58
2021/10/01 04:50:39;;;;;;;;;3.00;3.00;;;;;13.15;65.09;101475.63;5081788;27;45357;-59
2021/10/01 04:53:05;;;;;;;;;3.75;3.00;;;;;13.17;66.19;101470.34;5081959;27;45314;-59
2021/10/01 04:55:32;;;;;;;;;3.75;3.00;;;;;13.16;65.56;101479.94;5080434;27;45289;-59
2021/10/01 04:57:59;;;;;;;;;4.00;4.00;;;;;13.16;65.24;101479.06;5081258;27;45539;-59
2021/10/01 05:00:24;;;;;;;;;3.75;3.75;;;;;13.17;65.21;101480.78;5081656;28;46290;-62
2021/10/01 05:02:50;;;;;;;;;3.00;3.00;;;;;13.17;65.96;101486.00;5081893;27;45306;-64
2021/10/01 05:05:16;;;;;;;;;2.50;2.50;;;;;13.15;65.78;101486.06;5080663;28;45394;-66
2021/10/01 05:07:41;;;;;;;;;8.25;3.75;;;;;13.15;65.39;101487.81;5080770;28;45866;-60
2021/10/01 05:10:08;;;;;;;;;3.25;3.00;;;;;13.13;65.48;101489.59;5080522;27;45301;-60
2021/10/01 05:12:33;;;;;;;;;10.00;4.75;;;;;13.14;65.36;101480.88;5080234;27;45624;-59
2021/10/01 05:14:59;;;;;;;;;4.00;4.00;;;;;13.14;65.90;101480.88;5081151;27;45422;-60
2021/10/01 05:17:24;;;;;;;;;2.25;2.25;;;;;13.08;66.18;101482.75;5074417;27;45326;-60
2021/10/01 05:19:50;;;;;;;;;2.75;2.75;;;;;13.06;65.99;101483.69;5077489;28;46095;-60
2021/10/01 05:22:16;;;;;;;;;2.00;1.00;;;;;13.03;66.72;101483.78;5082071;27;45239;-59
2021/10/01 05:24:42;;;;;;;;;2.25;2.00;;;;;12.94;66.86;101489.22;5081891;27;45435;-65
2021/10/01 05:27:08;;;;;;;;;3.50;2.25;;;;;12.87;66.62;101478.09;5081516;27;45467;-61
2021/10/01 05:29:33;;;;;;;;;4.00;2.25;;;;;12.90;66.80;101490.19;5080980;27;45948;-58
2021/10/01 05:31:59;;;;;;;;;3.75;3.50;;;;;12.91;67.03;101473.66;5081636;28;45252;-58
2021/10/01 05:34:24;;;;;;;;;8.00;2.25;;;;;12.91;66.36;101478.88;5079448;28;45472;-59
2021/10/01 05:36:50;;;;;;;;;2.25;2.25;;;;;12.88;66.79;101479.81;5081231;27;45287;-60
2021/10/01 05:39:15;;;;;;;;;2.50;2.00;;;;;12.87;67.21;101472.00;5081031;27;45370;-59
2021/10/01 05:41:40;;;;;;;;;3.50;3.00;;;;;12.86;67.08;101473.78;5081082;27;45444;-58
2021/10/01 05:44:06;;;;;;;;;2.25;2.25;;;;;12.82;66.93;101463.47;5080175;27;45388;-67
2021/10/01 05:46:32;;;;;;;;;2.00;2.00;;;;;12.78;67.53;101466.13;5080667;27;45568;-64
2021/10/01 05:49:00;;;;;;;;;9.75;9.50;;;;;12.77;67.71;101467.00;5081001;27;46144;-60
2021/10/01 05:51:28;;;;;;;;;3.00;3.00;;;;;12.76;67.21;101465.31;5080841;28;45697;-63
2021/10/01 05:54:11;;;;;;;;;5.50;3.00;;;;;12.79;67.66;101459.16;5080867;27;45539;-63
2021/10/01 05:56:37;;;;;;;;;2.50;2.00;;;;;12.77;67.85;101463.53;5081225;27;45246;-63
2021/10/01 05:59:03;;;;;;;;;4.25;2.75;;;;;12.74;67.89;101450.59;5080274;27;45428;-64
2021/10/01 06:01:28;;;;;;;;;5.00;2.25;;;;;12.77;67.30;101450.50;5080746;27;45167;-66
2021/10/01 06:03:53;;;;;;;;;4.75;4.00;;;;;12.79;67.38;101451.31;5080329;27;45307;-63
2021/10/01 06:06:19;;;;;;;;;3.00;3.00;;;;;12.78;68.24;101447.00;5080677;27;45437;-64
2021/10/01 06:08:45;;;;;;;;;5.00;2.25;;;;;12.83;68.20;101454.75;5080539;28;46258;-60
2021/10/01 06:11:10;;;;;;;;;5.50;3.25;;;;;12.85;67.59;101452.94;5080737;27;45445;-61
2021/10/01 06:13:37;;;;;;;;;3.00;3.00;;;;;12.89;68.08;101452.81;5079998;27;45547;-59
2021/10/01 06:16:02;;;;;;;;;3.00;3.00;;;;;12.93;67.63;101451.84;5080709;27;45441;-63
2021/10/01 06:18:28;;;;;;;;;4.25;4.00;;;;;12.97;67.26;101455.22;5067544;28;46965;-62
2021/10/01 06:20:53;;;;;;;;;3.00;3.00;;;;;13.00;67.46;101455.13;5080837;27;45283;-62
2021/10/01 06:23:22;;;;;;;;;4.00;4.00;;;;;13.02;67.52;101451.63;5080999;27;45298;-60
2021/10/01 06:25:47;;;;;;;;;2.00;2.00;;;;;13.06;67.66;101449.78;5080785;27;45237;-61
2021/10/01 06:28:13;;;;;;;;;2.25;2.25;;;;;13.03;67.93;101448.09;5080382;27;45909;-61
2021/10/01 06:30:39;;;;;;;;;6.00;3.25;;;;;13.06;67.75;101449.78;5080149;27;45255;-60
2021/10/01 06:33:05;;;;;;;;;8.25;3.00;;;;;13.13;67.75;101453.06;5080520;28;45193;-60
2021/10/01 06:35:31;;;;;;;;;4.50;3.50;;;;;13.16;67.52;101455.59;5080441;27;45293;-60
2021/10/01 06:37:56;;;;;;;;;5.00;3.75;;;;;13.22;67.71;101458.09;5079824;27;45348;-59
2021/10/01 06:40:21;;;;;;;;;5.25;2.75;;;;;13.28;67.43;101455.31;5080757;27;45297;-58
2021/10/01 06:42:49;;;;;;;;;12.75;6.25;;;;;13.33;67.10;101451.66;5079925;27;45520;-58
2021/10/01 06:45:26;;;;;;;;;10.25;3.00;;;;;13.37;67.56;101440.22;5079457;27;45351;-58
2021/10/01 07:34:53;;;;;;;;;13.00;7.00;;;;;15.25;62.85;101449.16;5079472;27;45333;-60
2021/10/01 08:20:49;;;;;;;;;6.25;3.00;;;;;15.98;60.52;101399.25;5083254;27;45284;-57
2021/10/01 08:23:15;;;;;;;;;6.00;3.50;;;;;16.10;60.38;101399.63;5081729;28;45771;-62
2021/10/01 08:25:40;;;;;;;;;6.00;5.25;;;;;16.32;60.76;101396.16;5080167;27;46862;-62
2021/10/01 08:28:06;;;;;;;;;8.00;6.00;;;;;16.67;60.26;101394.72;5082853;27;45251;-62
2021/10/01 08:30:32;;;;;;;;;7.00;4.25;;;;;17.01;60.30;101386.22;5082536;27;45376;-61
2021/10/01 08:32:57;;;;;;;;;8.25;6.00;;;;;17.43;60.25;101385.25;5082735;27;45239;-56
2021/10/01 08:35:24;;;;;;;;;3.75;3.25;;;;;17.69;58.01;101390.19;5072192;27;46037;-59
2021/10/01 08:37:52;;;;;;;;;3.50;3.50;;;;;17.59;56.83;101391.50;5079834;28;45707;-59
2021/10/01 08:40:18;;;;;;;;;6.25;3.25;;;;;17.40;56.49;101388.00;5082955;27;45340;-60
2021/10/01 08:42:46;;;;;;;;;2.50;2.50;;;;;17.20;56.32;101381.88;5082261;27;45402;-60
2021/10/01 08:45:13;;;;;;;;;19.00;15.25;;;;;17.08;56.72;101381.59;5081688;27;45429;-59
2021/10/01 08:47:41;;;;;;;;;6.50;6.50;;;;;16.98;57.04;101374.09;5081877;28;45176;-58
2021/10/01 08:50:11;;;;;;;;;4.25;2.00;;;;;16.89;57.21;101377.13;5082553;28;45437;-59
2021/10/01 08:52:36;;;;;;;;;9.25;4.25;;;;;16.82;57.26;101378.34;5082870;27;45199;-63
2021/10/01 08:55:05;;;;;;;;;3.25;2.00;;;;;16.77;57.48;101376.81;5082789;27;46388;-57
2021/10/01 08:57:31;;;;;;;;;10.75;8.00;;;;;16.69;57.81;101380.63;5081205;28;45318;-59
2021/10/01 09:00:02;;;;;;;;;6.00;5.25;;;;;16.72;58.10;101377.84;5077722;28;45572;-61
2021/10/01 09:02:28;;;;;;;;;2.75;2.75;;;;;16.80;57.96;101379.28;5081935;28;45182;-59
2021/10/01 09:04:55;;;;;;;;;7.00;5.00;;;;;16.83;58.32;101374.78;5082411;27;45215;-60
2021/10/01 09:07:24;;;;;;;;;4.00;4.00;;;;;16.87;57.67;101372.88;5082443;27;45413;-61
2021/10/01 09:09:54;;;;;;;;;4.00;3.00;;;;;16.76;57.95;101368.06;5083020;27;45420;-61
2021/10/01 09:12:21;;;;;;;;;7.00;5.00;;;;;16.79;57.96;101375.81;5082852;27;45621;-60
2021/10/01 09:14:52;;;;;;;;;4.25;2.00;;;;;16.82;57.84;101377.44;5082255;27;46209;-61
2021/10/01 09:17:19;;;;;;;;;4.75;2.50;;;;;16.79;57.95;101365.31;5075766;27;45621;-60
2021/10/01 09:19:46;;;;;;;;;8.50;6.75;;;;;16.78;58.05;101357.50;5078332;28;45327;-61
2021/10/01 09:22:23;;;;;;;;;5.00;3.00;;;;;16.88;58.38;101353.56;5081172;27;45527;-61
2021/10/01 09:24:48;;;;;;;;;7.50;4.75;;;;;16.99;58.08;101359.19;5081313;27;46251;-60
2021/10/01 09:27:13;;;;;;;;;3.25;3.00;;;;;17.05;57.87;101352.84;5082423;27;45291;-61
2021/10/01 09:29:39;;;;;;;;;5.00;3.50;;;;;17.13;57.87;101354.19;5080426;28;45702;-61
2021/10/01 09:32:14;;;;;;;;;5.25;3.75;;;;;17.18;57.99;101360.06;5081799;27;45528;-59
2021/10/01 09:34:43;;;;;;;;;3.00;2.00;;;;;17.24;57.77;101357.19;5081796;27;46439;-57
2021/10/01 09:37:13;;;;;;;;;3.75;3.75;;;;;17.26;57.49;101360.59;5082292;27;45270;-55
2021/10/01 09:39:45;;;;;;;;;4.50;3.75;;;;;17.31;57.63;101357.75;5081872;28;45345;-57
2021/10/01 09:42:17;;;;;;;;;3.75;3.00;;;;;17.41;57.63;101360.81;5080758;27;45417;-58
2021/10/01 09:44:48;;;;;;;;;8.75;4.00;;;;;17.39;57.28;101354.75;5063537;28;46087;-58
2021/10/01 09:47:14;;;;;;;;;6.25;5.75;;;;;17.32;57.76;101356.84;5079505;27;45391;-57
2021/10/01 09:49:40;;;;;;;;;6.00;3.00;;;;;17.37;57.76;101360.09;5096873;27;45574;-60
2021/10/01 09:52:07;;;;;;;;;5.00;4.00;;;;;17.38;57.94;101358.31;5081360;27;45518;-60
2021/10/01 09:54:33;;;;;;;;;10.50;6.75;;;;;17.39;57.92;101354.75;5081386;27;47099;-63
2021/10/01 09:57:04;;;;;;;;;6.50;6.00;;;;;17.43;57.96;101343.22;5081533;28;45835;-59
2021/10/01 09:59:31;;;;;;;;;7.00;6.25;;;;;17.49;58.18;101356.06;5081293;27;45328;-62
2021/10/01 10:02:14;;;;;;;;;18.00;12.50;;;;;17.63;58.19;101348.41;5081249;27;45147;-61
2021/10/01 10:04:53;;;;;;;;;10.50;8.75;;;;;17.69;58.26;101361.28;5080792;27;46244;-65
2021/10/01 10:07:21;;;;;;;;;12.50;9.00;;;;;17.83;58.05;101356.22;5080558;28;45776;-61
2021/10/01 10:09:55;;;;;;;;;7.00;6.00;;;;;17.96;57.86;101351.22;5081163;27;45496;-62
2021/10/01 10:12:34;;;;;;;;;12.75;8.25;;;;;18.04;57.12;101351.69;5080993;27;45325;-63
2021/10/01 10:15:03;;;;;;;;;8.25;6.00;;;;;18.03;57.61;101357.88;5080671;27;45331;-62
2021/10/01 10:17:29;;;;;;;;;10.50;5.75;;;;;18.08;58.10;101349.78;5072786;27;45511;-62
2021/10/01 10:19:58;;;;;;;;;5.75;4.00;;;;;18.27;57.90;101344.44;5078271;28;45260;-62
2021/10/01 10:22:26;;;;;;;;;4.00;3.25;;;;;18.46;57.55;101348.72;5081322;27;45471;-62
2021/10/01 10:24:52;;;;;;;;;6.00;4.00;;;;;18.63;56.93;101352.31;5079741;27;45416;-62
2021/10/01 10:27:19;;;;;;;;;2.50;2.00;;;;;18.72;56.94;101365.84;5080571;28;45231;-62
2021/10/01 10:29:46;;;;;;;;;2.00;2.00;;;;;18.72;56.30;101360.56;5080306;27;45305;-62
2021/10/01 10:32:14;;;;;;;;;4.75;3.25;;;;;18.68;56.36;101356.41;5079748;27;45347;-61
2021/10/01 10:34:54;;;;;;;;;6.50;5.25;;;;;18.62;56.62;101345.28;5080012;27;46037;-60
2021/10/01 10:37:22;;;;;;;;;2.00;1.50;;;;;18.53;57.01;101344.84;5080556;27;45537;-61
2021/10/01 10:39:48;;;;;;;;;3.25;2.00;;;;;18.42;56.82;101338.41;5080289;27;45415;-60
2021/10/01 10:42:34;;;;;;;;;2.75;2.75;;;;;18.26;57.07;101327.81;5080438;28;45402;-64
2021/10/01 10:45:14;;;;;;;;;2.00;1.00;;;;;18.16;57.96;101329.19;5079614;27;47146;-64
2021/10/01 10:47:47;;;;;;;;;3.00;2.00;;;;;18.08;58.22;101320.84;5079858;27;45278;-65
2021/10/01 10:50:22;;;;;;;;;3.00;3.00;;;;;18.06;58.51;101318.28;5080619;27;45237;-62
2021/10/01 10:53:16;;;;;;;;;4.50;2.50;;;;;18.04;58.25;101312.25;5080063;28;45224;-66
2021/10/01 10:55:50;;;;;;;;;2.00;2.00;;;;;18.11;58.44;101310.16;5079774;27;46151;-68
2021/10/01 10:58:22;;;;;;;;;2.75;2.75;;;;;18.11;58.59;101318.06;5078615;27;45270;-68
2021/10/01 11:01:01;;;;;;;;;2.50;2.00;;;;;18.08;58.91;101320.84;5079977;27;45405;-68
2021/10/01 11:03:29;;;;;;;;;4.50;2.25;;;;;18.16;58.77;101323.94;5079215;27;45235;-69
2021/10/01 11:06:10;;;;;;;;;3.75;3.00;;;;;18.26;59.17;101317.28;5079817;27;45898;-70
2021/10/01 11:08:40;;;;;;;;;3.00;2.00;;;;;18.41;58.79;101313.00;5079804;27;45676;-68
2021/10/01 11:11:26;;;;;;;;;3.00;3.00;;;;;18.59;58.32;101298.06;5080453;27;45208;-69
2021/10/01 11:13:51;;;;;;;;;3.50;3.50;;;;;18.72;57.95;101296.53;5078227;27;45420;-68
2021/10/01 11:16:19;;;;;;;;;2.50;2.50;;;;;18.93;57.62;101305.94;5079338;27;45540;-68
2021/10/01 11:18:47;;;;;;;;;8.50;4.00;;;;;19.15;57.19;101295.94;5067783;27;45485;-68
2021/10/01 11:21:24;;;;;;;;;3.50;3.00;;;;;19.34;57.24;101279.97;5079367;27;45442;-69
2021/10/01 11:24:20;;;;;;;;;2.00;2.00;;;;;19.46;56.74;101286.34;5079663;28;45234;-68
2021/10/01 11:26:48;;;;;;;;;1.75;1.75;;;;;19.61;55.70;101282.88;5079392;28;46069;-68
2021/10/01 11:29:20;;;;;;;;;4.00;2.00;;;;;19.65;55.36;101286.22;5078896;27;45351;-69
2021/10/01 11:31:45;;;;;;;;;2.50;2.50;;;;;19.65;55.42;101294.97;5079580;27;45386;-69
2021/10/01 11:34:11;;;;;;;;;1.50;1.50;;;;;19.57;55.35;101283.13;5079128;27;45522;-68
2021/10/01 11:36:39;;;;;;;;;2.75;2.50;;;;;19.58;55.19;101285.69;5079437;27;45448;-70
2021/10/01 11:39:13;;;;;;;;;2.75;2.75;;;;;19.47;55.22;101290.69;5079650;27;45240;-70
2021/10/01 11:41:44;;;;;;;;;4.00;2.50;;;;;19.40;56.05;101273.50;5080066;27;45506;-69
2021/10/01 11:44:10;;;;;;;;;13.00;8.50;;;;;19.45;56.32;101280.25;5078309;27;45247;-69
2021/10/01 11:46:40;;;;;;;;;3.50;3.00;;;;;19.62;56.45;101273.16;5078948;28;46995;-68
2021/10/01 11:49:20;;;;;;;;;3.75;2.00;;;;;19.90;55.45;101272.47;5079540;27;45418;-68
2021/10/01 11:52:00;;;;;;;;;3.75;2.00;;;;;19.95;54.45;101273.03;5079563;27;45339;-68
2021/10/01 11:54:26;;;;;;;;;1.50;1.50;;;;;19.85;55.45;101271.88;5078870;27;45759;-69
2021/10/01 11:57:03;;;;;;;;;4.50;3.25;;;;;19.88;55.49;101267.28;5079571;28;46125;-68
2021/10/01 11:59:58;;;;;;;;;6.75;3.00;;;;;19.94;55.15;101263.44;5079260;27;45220;-69
2021/10/01 12:02:44;;;;;;;;;3.00;1.50;;;;;19.97;55.34;101255.31;5079629;27;45545;-69
2021/10/01 12:05:33;;;;;;;;;6.50;2.75;;;;;19.98;54.90;101251.75;5073640;28;45446;-69
2021/10/01 12:08:06;;;;;;;;;6.75;2.50;;;;;20.03;54.90;101249.72;5079256;27;45476;-68
2021/10/01 12:10:45;;;;;;;;;5.00;1.50;;;;;19.91;55.03;101235.44;5079299;27;45366;-69
2021/10/01 12:13:14;;;;;;;;;1.00;0.00;;;;;19.70;55.20;101239.31;5079206;27;45307;-69
2021/10/01 12:15:45;;;;;;;;;3.00;3.00;;;;;19.63;55.85;101233.56;5078808;27;45246;-69
2021/10/01 12:18:35;;;;;;;;;16.25;9.25;;;;;19.59;55.62;101231.16;5065841;28;46082;-68
2021/10/01 12:21:23;;;;;;;;;8.25;7.25;;;;;19.58;56.26;101235.59;5079210;28;45389;-69
2021/10/01 12:24:09;;;;;;;;;4.75;2.00;;;;;19.45;55.93;101235.41;5079358;27;45333;-68
2021/10/01 12:26:38;;;;;;;;;2.50;2.50;;;;;19.36;56.84;101235.06;5078718;28;45388;-69
2021/10/01 12:29:06;;;;;;;;;6.25;5.00;;;;;19.29;57.12;101229.31;5078812;27;46474;-69
2021/10/01 12:31:41;;;;;;;;;4.25;2.00;;;;;19.30;57.30;101232.78;5078884;27;45484;-69
2021/10/01 12:34:27;;;;;;;;;5.50;2.25;;;;;19.24;57.79;101239.25;5079253;27;45295;-68
2021/10/01 12:36:59;;;;;;;;;1.00;0.50;;;;;19.17;57.79;101229.13;5078949;27;45306;-69
2021/10/01 12:39:26;;;;;;;;;2.25;2.00;;;;;19.16;57.49;101217.75;5078847;27;45290;-70
2021/10/01 12:41:57;;;;;;;;;6.25;4.50;;;;;19.11;58.56;101207.47;5079132;27;45568;-69
2021/10/01 12:44:22;;;;;;;;;2.75;2.00;;;;;18.98;58.94;101206.44;5077821;27;45366;-69
2021/10/01 12:46:51;;;;;;;;;1.50;1.50;;;;;19.00;58.75;101211.63;5078204;27;45282;-68
2021/10/01 12:49:19;;;;;;;;;7.25;4.00;;;;;19.09;58.89;101213.75;5080657;27;46169;-69
2021/10/01 12:51:59;;;;;;;;;5.00;2.50;;;;;19.13;59.04;101210.00;5082390;27;45612;-68
2021/10/01 12:54:27;;;;;;;;;9.00;8.75;;;;;19.11;58.66;101203.97;5080925;27;45480;-69
2021/10/01 12:57:17;;;;;;;;;4.75;2.50;;;;;19.10;59.33;101199.66;5082264;27;45547;-68
2021/10/01 12:59:44;;;;;;;;;11.00;7.75;;;;;19.15;59.17;101193.19;5082012;28;45314;-69
2021/10/01 13:02:16;;;;;;;;;5.75;2.50;;;;;19.08;59.46;101194.47;5082203;27;45344;-69
2021/10/01 13:04:47;;;;;;;;;3.00;2.00;;;;;19.06;59.44;101198.13;5082168;27;45461;-69